Time;durP1;ratioP1;P1;durP2;ratioP2;P2;SDS_P1;SDS_P2;PMS_P1;PMS_P2;Temp;Humidity;BMP_temperature;BMP_pressure;BME280_temperature;BME280_humidity;BME280_pressure;Samples;Min_cycle;Max_cycle;Signal;HPM_P1;HPM_P2
2023/08/24 00:01:27;;;;;;;6.22;4.13;;;;;;;33.09;36.66;100772.63;5076618;28;20032;-47
2023/08/24 00:03:53;;;;;;;6.15;4.18;;;;;;;33.15;36.18;100768.44;5076438;28;20044;-47
2023/08/24 00:06:19;;;;;;;8.05;4.82;;;;;;;33.29;36.11;100771.50;5102112;28;20100;-47
2023/08/24 00:08:45;;;;;;;6.03;4.05;;;;;;;33.01;36.10;100765.31;5097883;28;20027;-48
2023/08/24 00:11:14;;;;;;;6.78;4.32;;;;;;;32.97;36.10;100770.75;5108620;28;20031;-48
2023/08/24 00:13:48;;;;;;;5.53;3.85;;;;;;;33.00;35.93;100777.56;5088261;28;20020;-47
2023/08/24 00:16:19;;;;;;;5.15;4.07;;;;;;;33.22;36.43;100765.00;5093428;28;20054;-45
2023/08/24 00:18:46;;;;;;;7.30;4.10;;;;;;;33.13;35.44;100767.97;5080085;28;20792;-45
2023/08/24 00:21:22;;;;;;;5.03;3.72;;;;;;;33.24;36.14;100762.69;5072889;28;20032;-48
2023/08/24 00:23:49;;;;;;;6.95;4.07;;;;;;;33.02;35.94;100759.41;5074795;28;20078;-45
2023/08/24 00:26:16;;;;;;;6.25;4.10;;;;;;;32.97;36.09;100754.13;5097158;28;20127;-46
2023/08/24 00:28:43;;;;;;;5.40;4.05;;;;;;;33.02;35.77;100756.63;5113375;28;20027;-52
2023/08/24 00:31:09;;;;;;;5.32;4.40;;;;;;;33.13;35.67;100759.66;5085600;28;20031;-44
2023/08/24 00:33:36;;;;;;;7.65;4.82;;;;;;;32.96;35.88;100751.72;5072520;28;20028;-45
2023/08/24 00:36:03;;;;;;;6.07;3.90;;;;;;;32.67;35.95;100741.88;5076780;28;20028;-60
2023/08/24 00:38:30;;;;;;;5.20;4.20;;;;;;;32.69;35.89;100743.13;5091934;28;20069;-50
2023/08/24 00:40:56;;;;;;;4.95;3.65;;;;;;;32.38;36.53;100748.69;5089245;28;20486;-46
2023/08/24 00:43:24;;;;;;;5.25;3.67;;;;;;;31.65;37.42;100744.22;5088401;28;20055;-47
2023/08/24 00:45:56;;;;;;;4.60;3.83;;;;;;;31.84;37.27;100743.63;5090900;28;20471;-52
2023/08/24 00:48:28;;;;;;;5.40;4.10;;;;;;;31.87;37.20;100746.50;5092683;28;20394;-49
2023/08/24 00:50:59;;;;;;;8.05;4.13;;;;;;;31.60;38.19;100750.81;5091203;28;20044;-50
2023/08/24 00:53:28;;;;;;;5.40;3.85;;;;;;;31.76;38.29;100753.63;5090719;28;20122;-56
2023/08/24 00:55:54;;;;;;;7.82;4.53;;;;;;;31.37;38.64;100750.53;5090903;28;20039;-56
2023/08/24 00:58:21;;;;;;;9.05;4.43;;;;;;;31.43;39.00;100757.44;5074500;28;20052;-47
2023/08/24 01:00:51;;;;;;;7.90;4.72;;;;;;;31.26;38.96;100749.38;5091179;28;20474;-45
2023/08/24 01:03:17;;;;;;;6.85;3.80;;;;;;;31.37;39.10;100749.69;5091060;28;20032;-45
2023/08/24 01:05:45;;;;;;;4.82;4.10;;;;;;;31.40;38.33;100744.28;5072149;28;20472;-47
2023/08/24 01:08:13;;;;;;;14.18;4.22;;;;;;;31.24;39.06;100746.94;5084688;28;20119;-47
2023/08/24 01:11:02;;;;;;;6.55;3.92;;;;;;;31.42;38.26;100753.03;5092411;28;20035;-48
2023/08/24 01:13:55;;;;;;;5.07;3.80;;;;;;;31.49;37.96;100755.22;5091921;28;20024;-46
2023/08/24 01:16:27;;;;;;;13.40;4.07;;;;;;;31.45;38.51;100754.31;5083282;28;20043;-49
2023/08/24 01:18:59;;;;;;;6.88;4.10;;;;;;;31.47;38.17;100755.56;5106498;28;20115;-50
2023/08/24 01:21:29;;;;;;;6.97;4.00;;;;;;;31.57;38.17;100754.28;5112447;28;20016;-50
2023/08/24 01:24:06;;;;;;;4.85;3.53;;;;;;;31.60;38.47;100756.34;5112059;28;20125;-49
2023/08/24 01:26:33;;;;;;;8.02;3.92;;;;;;;31.49;38.48;100753.28;5086592;28;20031;-48
2023/08/24 01:29:01;;;;;;;7.45;4.00;;;;;;;31.52;38.86;100758.09;5086517;28;20024;-49
2023/08/24 01:31:27;;;;;;;7.65;4.07;;;;;;;31.44;39.33;100756.28;5052127;28;20047;-50
2023/08/24 01:33:54;;;;;;;5.90;4.18;;;;;;;31.36;39.55;100764.69;5050971;28;20533;-49
2023/08/24 01:36:21;;;;;;;8.30;4.15;;;;;;;31.19;39.74;100761.00;5083731;28;20136;-50
2023/08/24 01:39:06;;;;;;;3.10;2.78;;;;;;;31.39;37.88;100766.78;5090669;28;20549;-49
2023/08/24 01:41:42;;;;;;;4.55;2.67;;;;;;;31.06;37.78;100767.69;5074391;28;20032;-50
2023/08/24 01:44:12;;;;;;;2.47;2.25;;;;;;;31.23;37.69;100766.66;5071853;28;20024;-49
2023/08/24 01:46:42;;;;;;;3.35;2.25;;;;;;;31.02;37.25;100750.19;5111558;28;20481;-49
2023/08/24 01:49:12;;;;;;;6.38;2.47;;;;;;;31.05;37.03;100755.03;5081183;28;20043;-49
2023/08/24 01:51:39;;;;;;;5.78;2.30;;;;;;;30.72;37.52;100752.38;5091313;28;20047;-45
2023/08/24 01:54:06;;;;;;;3.13;2.55;;;;;;;30.48;38.05;100748.41;5077996;28;20494;-48
2023/08/24 01:56:32;;;;;;;3.15;2.20;;;;;;;29.94;38.94;100748.44;5088716;28;20036;-46
2023/08/24 01:58:58;;;;;;;4.90;3.40;;;;;;;29.85;38.84;100744.97;5075871;28;20035;-45
2023/08/24 02:01:25;;;;;;;3.38;2.40;;;;;;;29.52;39.46;100750.38;5076638;28;20427;-48
2023/08/24 02:03:51;;;;;;;2.75;2.38;;;;;;;29.54;39.57;100759.19;5096971;28;20028;-45
2023/08/24 02:06:18;;;;;;;3.65;2.00;;;;;;;29.45;39.38;100753.69;5088928;28;20055;-48
2023/08/24 02:08:44;;;;;;;4.47;2.65;;;;;;;29.29;39.86;100752.66;5072811;28;20025;-48
2023/08/24 02:11:11;;;;;;;4.45;2.08;;;;;;;29.18;40.21;100757.75;5074968;28;20030;-49
2023/08/24 02:13:37;;;;;;;2.63;2.20;;;;;;;29.21;40.06;100761.81;5075762;28;20032;-46
2023/08/24 02:16:04;;;;;;;5.22;3.10;;;;;;;28.98;40.75;100764.00;5082155;28;20040;-49
2023/08/24 02:18:31;;;;;;;3.90;2.60;;;;;;;28.86;40.79;100761.13;5075257;28;20023;-46
2023/08/24 02:20:57;;;;;;;3.88;2.83;;;;;;;28.68;41.56;100765.91;5075291;28;20107;-49
2023/08/24 02:23:23;;;;;;;6.75;2.55;;;;;;;28.59;41.63;100767.88;5075333;28;20082;-46
2023/08/24 02:25:50;;;;;;;3.70;3.13;;;;;;;28.50;42.00;100770.66;5075516;28;20039;-49
2023/08/24 02:28:16;;;;;;;5.55;3.25;;;;;;;28.44;41.71;100777.50;5075954;28;20058;-47
2023/08/24 02:30:42;;;;;;;3.60;2.55;;;;;;;28.41;42.75;100773.44;5075403;28;20052;-46
2023/08/24 02:33:09;;;;;;;4.53;2.65;;;;;;;28.27;42.59;100783.00;5075258;28;20027;-49
2023/08/24 02:35:35;;;;;;;4.28;3.15;;;;;;;27.96;43.13;100778.50;5075175;28;20036;-49
2023/08/24 02:38:01;;;;;;;4.43;2.67;;;;;;;28.12;43.21;100781.56;5075531;28;20024;-49
2023/08/24 02:40:27;;;;;;;3.60;3.15;;;;;;;27.95;43.53;100789.84;5075349;28;20036;-47
2023/08/24 02:42:54;;;;;;;5.55;4.97;;;;;;;27.79;44.28;100789.50;5074664;28;20093;-46
2023/08/24 02:45:20;;;;;;;6.03;3.70;;;;;;;27.90;43.85;100788.06;5082190;28;20031;-50
2023/08/24 02:47:46;;;;;;;5.45;3.63;;;;;;;27.58;44.68;100783.78;5106487;28;20028;-47
2023/08/24 02:50:12;;;;;;;3.60;2.70;;;;;;;27.63;44.34;100784.44;5099194;28;20398;-46
2023/08/24 02:52:39;;;;;;;3.00;2.35;;;;;;;27.57;44.40;100785.72;5094614;28;20028;-46
2023/08/24 02:55:05;;;;;;;3.75;2.42;;;;;;;27.40;44.64;100793.94;5115547;28;20026;-47
2023/08/24 02:57:31;;;;;;;3.40;2.78;;;;;;;27.22;45.39;100795.84;5098370;28;20504;-46
2023/08/24 02:59:58;;;;;;;4.97;3.10;;;;;;;27.21;45.17;100796.19;5095009;28;20031;-47
2023/08/24 03:02:24;;;;;;;5.82;2.80;;;;;;;26.92;46.20;100788.44;5109055;28;20032;-47
2023/08/24 03:04:50;;;;;;;5.88;3.45;;;;;;;26.97;46.27;100791.03;5115195;28;20023;-49
2023/08/24 03:07:17;;;;;;;4.88;3.05;;;;;;;26.92;46.68;100793.94;5115257;28;20023;-49
2023/08/24 03:09:43;;;;;;;5.93;2.55;;;;;;;26.73;47.02;100799.66;5097801;28;20020;-47
2023/08/24 03:12:09;;;;;;;3.35;2.55;;;;;;;26.72;47.34;100801.59;5100604;28;20492;-46
2023/08/24 03:14:35;;;;;;;3.15;2.40;;;;;;;26.77;47.13;100803.41;5115418;28;20030;-49
2023/08/24 03:17:04;;;;;;;4.28;2.83;;;;;;;26.59;47.96;100808.78;5115431;28;20031;-48
2023/08/24 03:19:30;;;;;;;5.80;3.05;;;;;;;26.73;47.22;100808.72;5098345;28;20487;-47
2023/08/24 03:21:57;;;;;;;4.53;3.03;;;;;;;26.63;47.44;100819.16;5094422;28;20385;-49
2023/08/24 03:24:23;;;;;;;5.13;3.00;;;;;;;26.51;47.08;100815.03;5092699;28;20027;-46
2023/08/24 03:26:49;;;;;;;3.35;2.50;;;;;;;26.37;47.67;100819.75;5094803;28;20036;-46
2023/08/24 03:29:15;;;;;;;2.83;2.20;;;;;;;26.43;47.82;100824.06;5072058;28;20029;-48
2023/08/24 03:31:42;;;;;;;4.75;2.80;;;;;;;26.43;47.27;100826.78;5113760;28;20031;-49
2023/08/24 03:34:08;;;;;;;5.57;2.60;;;;;;;26.37;47.39;100833.47;5102214;28;20024;-48
2023/08/24 03:36:34;;;;;;;5.38;3.00;;;;;;;26.43;47.37;100832.28;5097344;28;20074;-48
2023/08/24 03:39:00;;;;;;;2.90;2.60;;;;;;;26.44;47.93;100828.41;5093760;28;20060;-47
2023/08/24 03:41:27;;;;;;;4.72;2.78;;;;;;;26.49;47.31;100825.53;5093706;28;20110;-47
2023/08/24 03:43:53;;;;;;;3.92;2.72;;;;;;;26.27;48.10;100826.31;5089321;28;20094;-48
2023/08/24 03:46:19;;;;;;;4.70;3.28;;;;;;;26.09;48.47;100821.00;5074945;28;20040;-46
2023/08/24 03:48:45;;;;;;;3.00;2.60;;;;;;;26.12;48.39;100823.94;5093575;28;20028;-48
2023/08/24 03:51:11;;;;;;;6.10;3.15;;;;;;;26.17;48.17;100829.31;5103493;28;20047;-48
2023/08/24 03:53:38;;;;;;;4.07;2.67;;;;;;;26.02;48.61;100821.44;5110870;28;20069;-48
2023/08/24 03:56:04;;;;;;;5.10;2.90;;;;;;;25.98;48.96;100829.47;5081944;28;20497;-46
2023/08/24 03:58:30;;;;;;;4.47;2.97;;;;;;;26.02;48.96;100822.25;5113614;28;20031;-47
2023/08/24 04:00:57;;;;;;;3.65;2.85;;;;;;;26.00;48.78;100829.19;5103500;28;20028;-47
2023/08/24 04:03:23;;;;;;;4.07;2.88;;;;;;;25.95;49.51;100832.03;5114242;28;20024;-47
2023/08/24 04:05:49;;;;;;;3.15;2.42;;;;;;;25.98;49.08;100832.22;5114327;28;20031;-47
2023/08/24 04:08:16;;;;;;;4.13;3.03;;;;;;;25.91;49.35;100833.75;5114460;28;20035;-50
2023/08/24 04:10:42;;;;;;;3.95;2.85;;;;;;;26.04;48.83;100841.97;5108456;28;20465;-49
2023/08/24 04:13:08;;;;;;;2.80;2.50;;;;;;;26.02;49.13;100838.69;5103949;28;20157;-49
2023/08/24 04:15:34;;;;;;;3.78;2.92;;;;;;;25.96;49.04;100850.09;5093639;28;20423;-49
2023/08/24 04:18:01;;;;;;;4.35;2.72;;;;;;;25.99;49.20;100844.81;5090927;28;20024;-49
2023/08/24 04:20:27;;;;;;;3.95;2.78;;;;;;;25.99;48.67;100850.31;5075039;28;20036;-50
2023/08/24 04:22:54;;;;;;;3.35;2.75;;;;;;;25.99;50.03;100849.50;5084339;28;20015;-48
2023/08/24 04:25:20;;;;;;;2.80;2.33;;;;;;;26.06;49.50;100850.69;5077544;28;20021;-49
2023/08/24 04:27:46;;;;;;;3.55;2.67;;;;;;;26.08;49.80;100852.31;5091536;28;20541;-49
2023/08/24 04:30:13;;;;;;;2.83;2.53;;;;;;;26.06;49.72;100856.16;5098456;28;20153;-46
2023/08/24 04:32:40;;;;;;;3.78;2.63;;;;;;;26.18;50.08;100857.56;5112794;28;20019;-48
2023/08/24 04:35:07;;;;;;;3.80;2.55;;;;;;;26.11;50.01;100854.44;5096516;28;20024;-49
2023/08/24 04:37:34;;;;;;;3.38;2.40;;;;;;;25.98;50.02;100856.88;5082030;28;20039;-48
2023/08/24 04:40:00;;;;;;;2.85;2.33;;;;;;;25.95;49.82;100853.97;5092794;28;20043;-49
2023/08/24 04:42:26;;;;;;;5.47;2.78;;;;;;;25.95;50.22;100853.97;5098174;28;20031;-49
2023/08/24 04:44:52;;;;;;;3.65;2.78;;;;;;;25.91;50.34;100858.44;5093643;28;20078;-48
2023/08/24 04:47:19;;;;;;;2.92;2.60;;;;;;;25.80;50.67;100857.84;5106823;28;20027;-49
2023/08/24 04:49:45;;;;;;;4.30;2.90;;;;;;;25.89;50.52;100855.22;5113079;28;20023;-48
2023/08/24 04:52:11;;;;;;;2.85;2.55;;;;;;;25.83;50.60;100861.94;5086464;28;20203;-48
2023/08/24 04:54:37;;;;;;;2.50;2.30;;;;;;;25.80;50.51;100857.84;5103435;28;20024;-48
2023/08/24 04:57:04;;;;;;;2.70;2.50;;;;;;;25.71;50.82;100859.69;5111236;28;20074;-49
2023/08/24 04:59:30;;;;;;;2.90;2.60;;;;;;;25.66;51.14;100857.06;5092707;28;20039;-48
2023/08/24 05:01:56;;;;;;;2.38;2.17;;;;;;;25.62;51.43;100854.09;5093004;28;20023;-49
2023/08/24 05:04:22;;;;;;;4.10;2.50;;;;;;;25.57;51.55;100861.63;5092503;28;20085;-49
2023/08/24 05:06:48;;;;;;;3.33;2.90;;;;;;;25.57;51.38;100858.88;5092743;28;20084;-48
2023/08/24 05:09:15;;;;;;;3.35;2.80;;;;;;;25.49;51.28;100858.50;5094593;28;20103;-48
2023/08/24 05:11:41;;;;;;;3.72;2.80;;;;;;;25.44;51.13;100860.53;5112819;28;20030;-45
2023/08/24 05:14:07;;;;;;;3.40;2.70;;;;;;;25.33;50.91;100864.59;5112749;28;20034;-48
2023/08/24 05:16:33;;;;;;;3.60;2.80;;;;;;;25.21;51.17;100859.63;5113400;28;20111;-47
2023/08/24 05:19:00;;;;;;;4.47;3.10;;;;;;;25.22;51.25;100866.72;5092348;28;20542;-48
2023/08/24 05:21:26;;;;;;;2.95;2.65;;;;;;;25.21;51.19;100865.91;5092233;28;20028;-48
2023/08/24 05:23:52;;;;;;;3.38;3.08;;;;;;;25.34;51.02;100863.47;5092082;28;20020;-49
2023/08/24 05:26:22;;;;;;;4.50;2.90;;;;;;;25.17;51.13;100866.81;5092253;28;20031;-48
2023/08/24 05:28:48;;;;;;;2.90;2.70;;;;;;;25.02;51.56;100865.94;5087893;28;20114;-47
2023/08/24 05:31:15;;;;;;;3.05;2.75;;;;;;;25.09;51.27;100867.50;5072104;28;20025;-46
2023/08/24 05:33:41;;;;;;;4.25;2.83;;;;;;;25.00;51.49;100859.97;5072263;28;20032;-49
2023/08/24 05:36:07;;;;;;;6.47;4.22;;;;;;;24.94;55.38;100863.09;5081308;28;20055;-49
2023/08/24 05:38:33;;;;;;;5.32;4.20;;;;;;;24.99;56.96;100857.53;5094823;28;20544;-47
2023/08/24 05:40:59;;;;;;;7.05;4.20;;;;;;;24.88;58.27;100865.13;5092329;28;20027;-49
2023/08/24 05:43:26;;;;;;;6.80;4.43;;;;;;;24.79;58.38;100858.69;5091547;28;20103;-46
2023/08/24 05:45:52;;;;;;;7.47;4.70;;;;;;;24.64;59.28;100859.75;5092095;28;20031;-48
2023/08/24 05:48:18;;;;;;;9.13;5.05;;;;;;;24.59;59.53;100851.63;5091288;28;20437;-49
2023/08/24 05:50:46;;;;;;;6.82;4.30;;;;;;;24.35;60.83;100862.72;5090781;28;20130;-48
2023/08/24 05:53:12;;;;;;;9.05;4.75;;;;;;;24.35;61.10;100862.72;5091639;28;20485;-47
2023/08/24 05:55:39;;;;;;;8.27;4.82;;;;;;;24.21;61.52;100864.56;5091831;28;20035;-49
2023/08/24 05:58:06;;;;;;;6.47;4.25;;;;;;;24.20;61.43;100865.63;5091874;28;20486;-49
2023/08/24 06:00:32;;;;;;;8.50;5.25;;;;;;;24.15;61.69;100860.25;5092048;28;20016;-49
2023/08/24 06:02:59;;;;;;;13.63;5.28;;;;;;;24.05;62.01;100857.69;5091644;28;20538;-49
2023/08/24 06:05:26;;;;;;;8.55;4.55;;;;;;;23.98;62.34;100864.31;5091940;28;20032;-49
2023/08/24 06:07:52;;;;;;;10.60;5.53;;;;;;;23.90;62.99;100861.44;5081808;28;20023;-48
2023/08/24 06:10:18;;;;;;;7.35;5.10;;;;;;;23.96;63.00;100861.06;5089886;28;20692;-48
2023/08/24 06:12:45;;;;;;;10.88;5.57;;;;;;;23.98;63.06;100861.56;5091515;28;20043;-48
2023/08/24 06:15:13;;;;;;;9.13;5.30;;;;;;;23.61;64.90;100864.25;5092083;28;20028;-46
2023/08/24 06:17:39;;;;;;;9.45;4.55;;;;;;;23.78;64.32;100853.69;5091974;28;20029;-48
2023/08/24 06:20:10;;;;;;;9.23;5.07;;;;;;;23.73;64.45;100848.28;5091769;28;20042;-49
2023/08/24 06:22:36;;;;;;;9.93;5.10;;;;;;;23.85;64.25;100859.59;5090514;28;20024;-49
2023/08/24 06:25:03;;;;;;;10.85;5.68;;;;;;;23.51;65.33;100859.72;5091644;28;20497;-48
2023/08/24 06:27:29;;;;;;;12.05;5.65;;;;;;;23.60;65.19;100848.97;5091601;28;20075;-48
2023/08/24 06:29:55;;;;;;;11.10;5.63;;;;;;;23.50;65.56;100849.09;5091592;28;20069;-48
2023/08/24 06:32:21;;;;;;;8.93;5.53;;;;;;;23.68;64.69;100848.34;5091405;28;20059;-46
2023/08/24 06:34:48;;;;;;;10.02;6.10;;;;;;;23.64;64.97;100850.84;5091396;28;20020;-46
2023/08/24 06:37:14;;;;;;;12.77;5.57;;;;;;;23.59;65.54;100850.06;5081503;28;20025;-48
2023/08/24 06:39:40;;;;;;;14.15;6.50;;;;;;;23.30;66.18;100841.94;5089007;28;20028;-48
2023/08/24 06:42:06;;;;;;;8.88;5.50;;;;;;;23.26;66.49;100851.81;5091663;28;20081;-46
2023/08/24 06:44:33;;;;;;;9.23;5.75;;;;;;;23.21;66.40;100852.72;5090969;28;20494;-47
2023/08/24 06:46:59;;;;;;;11.23;5.88;;;;;;;23.06;67.22;100847.41;5091659;28;20059;-49
2023/08/24 06:49:25;;;;;;;13.35;5.70;;;;;;;23.09;67.25;100849.53;5091345;28;20076;-49
2023/08/24 06:51:51;;;;;;;17.42;6.65;;;;;;;22.96;68.05;100844.78;5087143;28;20071;-49
2023/08/24 06:54:18;;;;;;;11.40;5.78;;;;;;;22.96;68.11;100852.97;5070348;28;20025;-49
2023/08/24 06:56:44;;;;;;;11.85;6.13;;;;;;;22.81;68.09;100846.53;5073986;28;20025;-48
2023/08/24 06:59:12;;;;;;;9.57;5.65;;;;;;;22.84;68.04;100845.97;5075383;28;20489;-48
2023/08/24 07:01:40;;;;;;;13.05;6.68;;;;;;;22.73;68.91;100847.16;5074874;28;20025;-49
2023/08/24 07:04:07;;;;;;;9.85;5.60;;;;;;;22.66;69.28;100849.41;5074513;28;20177;-47
2023/08/24 07:06:36;;;;;;;12.57;6.05;;;;;;;22.51;70.18;100850.34;5076087;28;20020;-47
2023/08/24 07:09:06;;;;;;;11.40;6.20;;;;;;;22.67;69.51;100846.38;5074350;28;20494;-49
2023/08/24 07:11:32;;;;;;;15.05;6.55;;;;;;;22.38;70.84;100851.00;5074643;28;20514;-48
2023/08/24 07:13:58;;;;;;;13.07;6.60;;;;;;;22.50;70.04;100847.91;5074136;28;20027;-47
2023/08/24 07:16:25;;;;;;;11.18;6.43;;;;;;;22.47;70.12;100851.19;5074559;28;20107;-48
2023/08/24 07:18:51;;;;;;;12.23;6.35;;;;;;;22.35;70.78;100846.09;5074550;28;20028;-48
2023/08/24 07:21:17;;;;;;;18.17;7.03;;;;;;;22.34;70.84;100848.03;5078127;28;20024;-48
2023/08/24 07:23:43;;;;;;;15.80;6.82;;;;;;;22.41;71.05;100842.25;5074121;28;20063;-49
2023/08/24 07:26:10;;;;;;;10.30;6.70;;;;;;;22.28;71.48;100846.44;5074431;28;20028;-46
2023/08/24 07:28:36;;;;;;;10.73;6.75;;;;;;;22.22;72.05;100853.03;5074318;28;20032;-48
2023/08/24 07:31:12;;;;;;;13.48;6.90;;;;;;;22.23;72.00;100849.19;5074338;28;20028;-48
2023/08/24 07:33:39;;;;;;;11.88;6.15;;;;;;;22.38;71.30;100851.81;5073811;28;20091;-48
2023/08/24 07:36:05;;;;;;;13.00;7.05;;;;;;;22.27;71.79;100850.25;5074120;28;20037;-48
2023/08/24 07:38:32;;;;;;;11.13;5.85;;;;;;;22.12;72.20;100850.38;5077143;28;20154;-47
2023/08/24 07:40:59;;;;;;;12.65;5.95;;;;;;;22.22;72.22;100854.94;5083051;28;20170;-48
2023/08/24 07:43:25;;;;;;;11.50;5.57;;;;;;;22.26;71.95;100850.53;5094269;28;20587;-48
2023/08/24 07:45:52;;;;;;;10.98;6.15;;;;;;;22.18;72.44;100851.97;5094372;28;20390;-48
2023/08/24 07:48:18;;;;;;;11.50;6.13;;;;;;;22.26;72.04;100845.88;5094304;28;20020;-48
2023/08/24 07:50:45;;;;;;;11.38;5.82;;;;;;;22.27;72.37;100847.53;5094126;28;20040;-48
2023/08/24 07:53:11;;;;;;;13.48;6.53;;;;;;;22.04;73.26;100850.91;5094506;28;20110;-49
2023/08/24 07:55:37;;;;;;;10.30;5.95;;;;;;;22.08;72.94;100849.25;5094102;28;20076;-47
2023/08/24 07:58:03;;;;;;;8.02;6.35;;;;;;;22.23;72.71;100851.09;5092808;28;20036;-47
2023/08/24 08:00:30;;;;;;;11.57;6.53;;;;;;;22.01;73.05;100844.13;5093768;28;20114;-48
2023/08/24 08:02:56;;;;;;;10.90;5.85;;;;;;;22.10;72.54;100855.28;5093735;28;20032;-48
2023/08/24 08:05:22;;;;;;;8.27;5.80;;;;;;;22.16;72.66;100847.91;5093990;28;20170;-48
2023/08/24 08:07:49;;;;;;;9.45;6.32;;;;;;;21.94;73.31;100848.28;5093861;28;20497;-49
2023/08/24 08:10:17;;;;;;;11.68;6.07;;;;;;;22.00;73.28;100845.22;5092632;28;20035;-48
2023/08/24 08:12:43;;;;;;;12.43;6.47;;;;;;;22.03;73.67;100844.66;5093452;28;20035;-49
2023/08/24 08:15:09;;;;;;;12.23;6.00;;;;;;;22.12;73.68;100848.44;5093664;28;20111;-48
2023/08/24 08:17:36;;;;;;;11.82;6.72;;;;;;;21.99;74.25;100845.53;5093838;28;20028;-48
2023/08/24 08:20:02;;;;;;;13.48;6.40;;;;;;;21.96;74.77;100844.16;5093347;28;20477;-48
2023/08/24 08:22:29;;;;;;;14.48;7.22;;;;;;;21.90;74.90;100841.75;5093440;28;20474;-47
2023/08/24 08:24:56;;;;;;;15.90;7.55;;;;;;;21.90;75.66;100847.19;5093693;28;20038;-49
2023/08/24 08:27:23;;;;;;;12.45;7.72;;;;;;;21.84;75.65;100852.69;5092545;28;20077;-47
2023/08/24 08:29:50;;;;;;;17.17;7.88;;;;;;;21.87;75.56;100848.56;5093659;28;20604;-49
2023/08/24 08:32:16;;;;;;;13.30;6.90;;;;;;;21.95;75.33;100849.91;5093303;28;20130;-46
2023/08/24 08:34:43;;;;;;;13.52;7.10;;;;;;;21.78;75.44;100848.34;5093050;28;20103;-47
2023/08/24 08:37:09;;;;;;;10.68;6.93;;;;;;;21.63;75.65;100853.88;5091355;28;20067;-48
2023/08/24 08:39:35;;;;;;;15.15;7.38;;;;;;;21.52;75.96;100855.00;5093385;28;20385;-45
2023/08/24 08:42:02;;;;;;;12.65;6.28;;;;;;;21.61;75.33;100862.31;5093172;28;20077;-46
2023/08/24 08:44:34;;;;;;;10.05;5.70;;;;;;;21.66;75.02;100863.41;5093077;28;20056;-49
2023/08/24 08:47:01;;;;;;;14.68;6.95;;;;;;;21.65;75.42;100859.84;5093421;28;20473;-46
2023/08/24 08:49:30;;;;;;;13.75;6.15;;;;;;;21.54;75.19;100860.97;5092868;28;20030;-48
2023/08/24 08:51:56;;;;;;;12.18;7.15;;;;;;;21.47;75.59;100857.75;5090017;28;20040;-46
2023/08/24 08:54:22;;;;;;;9.88;6.63;;;;;;;21.48;75.38;100859.38;5092743;28;20036;-45
2023/08/24 08:56:50;;;;;;;12.73;6.60;;;;;;;21.40;75.62;100859.97;5091546;28;20075;-45
2023/08/24 08:59:17;;;;;;;13.05;6.70;;;;;;;21.16;76.70;100865.19;5092346;28;20123;-47
2023/08/24 09:01:45;;;;;;;13.13;6.72;;;;;;;21.05;77.29;100862.47;5093018;28;20028;-47
2023/08/24 09:04:11;;;;;;;12.77;6.78;;;;;;;21.29;76.20;100865.44;5091705;28;20073;-48
2023/08/24 09:06:38;;;;;;;12.15;6.50;;;;;;;21.17;76.50;100867.63;5092895;28;20500;-45
2023/08/24 09:09:05;;;;;;;10.63;6.82;;;;;;;21.27;75.83;100855.91;5089790;28;20024;-47
2023/08/24 09:11:33;;;;;;;12.27;6.78;;;;;;;21.07;76.88;100857.56;5092617;28;20028;-47
2023/08/24 09:13:59;;;;;;;10.02;5.93;;;;;;;21.16;76.34;100860.53;5091663;28;20043;-45
2023/08/24 09:16:30;;;;;;;13.63;6.22;;;;;;;21.10;77.08;100861.66;5088448;28;20028;-46
2023/08/24 09:18:56;;;;;;;15.55;7.05;;;;;;;20.97;77.47;100862.19;5082454;28;20077;-47
2023/08/24 09:21:25;;;;;;;12.48;6.55;;;;;;;20.80;78.51;100859.78;5070411;28;20119;-46
2023/08/24 09:23:55;;;;;;;14.70;6.97;;;;;;;20.56;79.33;100860.34;5072114;28;20036;-48
2023/08/24 09:26:30;;;;;;;18.35;8.07;;;;;;;20.85;78.75;100862.50;5077677;28;20389;-48
2023/08/24 09:28:57;;;;;;;14.23;6.88;;;;;;;20.79;78.72;100869.03;5091555;28;20024;-46
2023/08/24 09:31:36;;;;;;;12.40;6.68;;;;;;;20.47;79.91;100872.03;5074359;28;20115;-49
2023/08/24 09:34:03;;;;;;;11.23;6.07;;;;;;;20.56;80.22;100863.06;5092140;28;20012;-46
2023/08/24 09:36:39;;;;;;;9.45;6.43;;;;;;;20.51;80.43;100856.81;5092300;28;20134;-46
2023/08/24 09:39:06;;;;;;;10.35;6.53;;;;;;;20.61;79.77;100859.53;5092309;28;20081;-49
2023/08/24 09:41:45;;;;;;;11.27;7.05;;;;;;;20.43;80.61;100862.72;5092108;28;20108;-49
2023/08/24 09:44:12;;;;;;;15.35;7.10;;;;;;;20.54;80.28;100859.81;5092035;28;20027;-49
2023/08/24 09:46:40;;;;;;;12.23;7.15;;;;;;;20.49;80.67;100864.44;5091237;28;20036;-46
2023/08/24 09:49:08;;;;;;;14.05;8.25;;;;;;;20.28;81.84;100861.66;5091556;28;20043;-49
2023/08/24 09:51:36;;;;;;;12.70;6.55;;;;;;;20.36;81.47;100865.72;5091861;28;20076;-48
2023/08/24 09:54:08;;;;;;;13.73;6.90;;;;;;;20.49;80.48;100861.72;5073809;28;20028;-46
2023/08/24 09:56:39;;;;;;;12.32;7.00;;;;;;;20.43;80.80;100868.16;5092064;28;20032;-48
2023/08/24 09:59:18;;;;;;;9.18;6.78;;;;;;;20.35;81.65;100871.44;5092248;28;20126;-47
2023/08/24 10:01:47;;;;;;;12.27;7.68;;;;;;;20.43;80.62;100873.59;5091349;28;20032;-48
2023/08/24 10:04:15;;;;;;;12.70;7.38;;;;;;;20.45;80.66;100864.13;5091887;28;20020;-45
2023/08/24 10:06:44;;;;;;;17.60;8.63;;;;;;;20.15;82.35;100867.59;5091694;28;20086;-47
2023/08/24 10:09:22;;;;;;;15.00;8.70;;;;;;;20.17;81.62;100870.88;5090806;28;20024;-47
2023/08/24 10:11:54;;;;;;;13.57;8.15;;;;;;;20.14;82.33;100867.88;5087958;28;20111;-46
2023/08/24 10:14:29;;;;;;;17.80;8.07;;;;;;;20.19;81.45;100862.44;5091962;28;20017;-48
2023/08/24 10:16:56;;;;;;;16.52;8.35;;;;;;;20.10;81.81;100867.59;5091557;28;20055;-47
2023/08/24 10:19:23;;;;;;;14.38;8.40;;;;;;;20.17;81.50;100865.44;5076914;28;20032;-47
2023/08/24 10:21:53;;;;;;;14.07;7.93;;;;;;;20.15;81.73;100859.44;5071326;28;20032;-50
2023/08/24 10:24:21;;;;;;;14.50;8.55;;;;;;;20.15;81.10;100861.34;5071394;28;20099;-48
2023/08/24 10:26:48;;;;;;;18.33;8.57;;;;;;;20.17;81.22;100862.72;5071358;28;20071;-47
2023/08/24 10:29:16;;;;;;;23.08;9.25;;;;;;;20.02;82.04;100868.94;5084257;28;20032;-49
2023/08/24 10:31:43;;;;;;;15.30;8.82;;;;;;;20.13;82.41;100864.34;5094478;28;20077;-46
2023/08/24 10:34:10;;;;;;;14.25;9.50;;;;;;;20.18;82.40;100861.63;5095347;28;20391;-47
2023/08/24 10:36:40;;;;;;;13.70;8.20;;;;;;;20.00;82.79;100865.69;5095806;28;20024;-47
2023/08/24 10:39:07;;;;;;;12.43;8.60;;;;;;;19.95;82.61;100868.38;5094817;28;20028;-46
2023/08/24 10:41:52;;;;;;;19.90;8.43;;;;;;;19.89;81.98;100865.91;5095253;28;20099;-46
2023/08/24 10:44:24;;;;;;;16.13;8.50;;;;;;;19.60;82.15;100860.09;5094586;28;20093;-47
2023/08/24 10:47:13;;;;;;;14.18;8.77;;;;;;;19.74;81.56;100859.34;5095097;28;20477;-46
2023/08/24 10:49:43;;;;;;;19.10;10.25;;;;;;;19.75;82.48;100857.44;5076434;28;20040;-48
2023/08/24 10:52:43;;;;;;;15.63;8.77;;;;;;;19.72;82.64;100847.94;5095143;28;20024;-46
2023/08/24 10:55:29;;;;;;;18.45;8.13;;;;;;;19.61;82.84;100859.03;5075865;28;20080;-49
2023/08/24 10:58:02;;;;;;;14.07;7.88;;;;;;;19.58;82.34;100844.03;5095368;28;20032;-48
2023/08/24 11:00:32;;;;;;;17.80;9.00;;;;;;;19.60;82.23;100849.22;5093589;28;20028;-44
2023/08/24 11:02:58;;;;;;;16.50;8.38;;;;;;;19.67;82.33;100850.63;5075568;28;20035;-45
2023/08/24 11:05:35;;;;;;;12.68;8.07;;;;;;;19.43;nan;100854.84;5080918;28;20058;-44
2023/08/24 11:08:05;;;;;;;12.65;7.57;;;;;;;19.66;82.47;100853.63;5095097;28;20450;-49
2023/08/24 11:10:49;;;;;;;13.07;8.90;;;;;;;19.45;83.18;100853.50;5093714;28;20024;-51
2023/08/24 11:13:16;;;;;;;14.50;8.60;;;;;;;19.53;83.54;100849.44;5094435;28;20382;-51
2023/08/24 11:15:46;;;;;;;17.00;9.00;;;;;;;19.65;83.15;100850.06;5094103;28;20054;-52
2023/08/24 11:18:23;;;;;;;14.13;8.63;;;;;;;19.69;83.12;100850.38;5084033;28;20500;-53
2023/08/24 11:20:54;;;;;;;16.30;8.65;;;;;;;19.69;83.61;100848.47;5086925;28;20036;-50
2023/08/24 11:23:22;;;;;;;16.90;9.23;;;;;;;19.64;84.02;100851.16;5094028;28;20500;-53
2023/08/24 11:25:56;;;;;;;14.77;8.82;;;;;;;19.58;83.90;100840.50;5093536;28;20032;-53